createdAt,value
2019-06-08T00:00:22.618Z,82.28
2019-06-08T00:01:22.907Z,82.18
2019-06-08T00:02:22.973Z,82.18
2019-06-08T00:03:22.761Z,81.88
2019-06-08T00:04:22.881Z,81.78
2019-06-08T00:05:23.109Z,81.78
2019-06-08T00:06:23.060Z,82.58
2019-06-08T00:07:23.071Z,82.32
2019-06-08T00:08:23.042Z,82.22
2019-06-08T00:09:23.894Z,82.78
2019-06-08T00:10:25.548Z,83.03
2019-06-08T00:11:23.424Z,83.23
2019-06-08T00:12:23.267Z,82.92
2019-06-08T00:13:23.258Z,83.43
2019-06-08T00:14:23.409Z,83.33
2019-06-08T00:15:22.468Z,83.43
2019-06-08T00:16:23.867Z,83.63
2019-06-08T00:17:35.760Z,83.73
2019-06-08T00:18:23.673Z,83.73
2019-06-08T00:19:23.551Z,83.63
2019-06-08T00:20:23.679Z,83.59
2019-06-08T00:21:22.308Z,83.83
2019-06-08T00:22:22.303Z,83.53
2019-06-08T00:23:22.309Z,84.23
2019-06-08T00:24:22.266Z,84.23
2019-06-08T00:25:22.524Z,83.93
2019-06-08T00:26:22.275Z,84.13
2019-06-08T00:27:23.116Z,84.63
2019-06-08T00:28:22.498Z,84.57
2019-06-08T00:29:22.473Z,84.57
2019-06-08T00:30:22.201Z,84.74
2019-06-08T00:31:22.194Z,84.57
2019-06-08T00:32:22.651Z,84.53
2019-06-08T00:33:22.621Z,84.77
2019-06-08T00:34:22.712Z,84.53
2019-06-08T00:35:22.792Z,84.63
2019-06-08T00:36:23.049Z,84.63
2019-06-08T00:37:22.900Z,84.97
2019-06-08T00:38:23.026Z,85.33
2019-06-08T00:39:22.988Z,85.48
2019-06-08T00:40:23.134Z,85.48
2019-06-08T00:41:23.575Z,86.18
2019-06-08T00:42:23.109Z,85.98
2019-06-08T00:43:22.056Z,85.88
2019-06-08T00:44:23.322Z,85.98
2019-06-08T00:45:23.494Z,85.68
2019-06-08T00:46:22.025Z,85.78
2019-06-08T00:47:22.572Z,86.08
2019-06-08T00:48:22.679Z,86.08
2019-06-08T00:49:22.715Z,85.98
2019-06-08T00:50:22.966Z,86.38
2019-06-08T00:51:23.115Z,86.48
2019-06-08T00:52:23.133Z,86.12
2019-06-08T00:53:23.211Z,86.48
2019-06-08T00:54:21.942Z,86.32
2019-06-08T00:55:21.996Z,86.28
2019-06-08T00:56:21.911Z,86.38
2019-06-08T00:57:21.932Z,86.58
2019-06-08T00:58:22.026Z,86.79
2019-06-08T00:59:21.946Z,86.79
2019-06-08T01:00:22.530Z,86.28
2019-06-08T01:01:24.297Z,86.38
2019-06-08T01:02:22.579Z,86.18
2019-06-08T01:03:21.832Z,86.04
2019-06-08T01:04:22.717Z,85.94
2019-06-08T01:05:21.945Z,86.34
2019-06-08T01:06:22.978Z,85.74
2019-06-08T01:07:27.270Z,85.94
2019-06-08T01:08:22.726Z,86.14
2019-06-08T01:09:22.170Z,85.64
2019-06-08T01:10:21.778Z,85.33
2019-06-08T01:11:22.540Z,85.74
2019-06-08T01:12:22.989Z,85.74
2019-06-08T01:13:22.909Z,85.80
2019-06-08T01:14:22.915Z,85.80
2019-06-08T01:15:28.898Z,86.00
2019-06-08T01:16:22.909Z,85.19
2019-06-08T01:17:22.991Z,84.75
2019-06-08T01:18:22.911Z,84.69
2019-06-08T01:19:23.059Z,84.69
2019-06-08T01:20:21.865Z,84.59
2019-06-08T01:21:21.663Z,84.15
2019-06-08T01:22:21.714Z,84.35
2019-06-08T01:23:21.646Z,84.45
2019-06-08T01:24:21.911Z,84.05
2019-06-08T01:25:23.621Z,83.99
2019-06-08T01:26:22.277Z,84.29
2019-06-08T01:27:22.058Z,84.25
2019-06-08T01:28:22.350Z,84.55
2019-06-08T01:29:22.275Z,84.39
2019-06-08T01:30:22.612Z,84.29
2019-06-08T01:31:22.444Z,84.80
2019-06-08T01:32:22.299Z,84.55
2019-06-08T01:33:22.531Z,84.69
2019-06-08T01:34:22.798Z,84.89
2019-06-08T01:35:22.886Z,84.89
2019-06-08T01:36:22.691Z,84.99
2019-06-08T01:37:22.871Z,84.89
2019-06-08T01:38:21.444Z,84.89
2019-06-08T01:39:21.440Z,84.80
2019-06-08T01:40:21.418Z,84.69
2019-06-08T01:41:21.441Z,84.49
2019-06-08T01:42:21.482Z,84.49
2019-06-08T01:43:21.748Z,84.25
2019-06-08T01:44:21.564Z,84.45
2019-06-08T01:45:21.686Z,84.15
2019-06-08T01:46:21.850Z,84.55
2019-06-08T01:47:22.133Z,84.75
2019-06-08T01:48:22.297Z,84.55
2019-06-08T01:49:22.019Z,84.55
2019-06-08T01:50:22.397Z,84.25
2019-06-08T01:51:22.513Z,84.25
2019-06-08T01:52:22.467Z,84.05
2019-06-08T01:53:22.674Z,84.05
2019-06-08T01:54:21.266Z,84.11
2019-06-08T01:55:21.251Z,84.11
2019-06-08T01:56:21.251Z,83.31
2019-06-08T01:57:21.265Z,83.71
2019-06-08T01:58:21.229Z,82.60
2019-06-08T01:59:21.204Z,82.00
2019-06-08T02:00:30.327Z,81.90
2019-06-08T02:01:23.424Z,82.10
2019-06-08T02:02:21.188Z,82.06
2019-06-08T02:03:21.160Z,81.40
2019-06-08T02:04:21.162Z,81.40
2019-06-08T02:05:21.142Z,80.86
2019-06-08T02:06:21.130Z,78.66
2019-06-08T02:07:21.198Z,78.25
2019-06-08T02:08:21.107Z,77.55
2019-06-08T02:09:21.095Z,77.25
2019-06-08T02:10:21.102Z,76.28
2019-06-08T02:11:21.082Z,77.35
2019-06-08T02:12:21.061Z,77.28
2019-06-08T02:13:21.061Z,77.19
2019-06-08T02:14:21.040Z,77.48
2019-06-08T02:15:21.039Z,77.09
2019-06-08T02:16:21.018Z,77.02
2019-06-08T02:17:21.004Z,76.72
2019-06-08T02:18:35.362Z,76.72
2019-06-08T02:19:21.981Z,76.21
2019-06-08T02:20:21.003Z,75.82
2019-06-08T02:21:20.961Z,74.55
2019-06-08T02:22:20.947Z,74.65
2019-06-08T02:23:20.937Z,75.11
2019-06-08T02:24:20.933Z,74.55
2019-06-08T02:25:20.937Z,74.65
2019-06-08T02:26:20.904Z,74.65
2019-06-08T02:27:20.895Z,75.05
2019-06-08T02:28:20.890Z,74.44
2019-06-08T02:29:20.871Z,73.54
2019-06-08T02:30:20.872Z,74.24
2019-06-08T02:31:20.861Z,73.68
2019-06-08T02:32:20.836Z,73.58
2019-06-08T02:33:20.835Z,73.68
2019-06-08T02:34:20.830Z,73.18
2019-06-08T02:35:20.803Z,73.98
2019-06-08T02:36:20.883Z,74.08
2019-06-08T02:37:20.782Z,75.09
2019-06-08T02:38:20.779Z,74.98
2019-06-08T02:39:20.759Z,74.38
2019-06-08T02:40:20.755Z,74.41
2019-06-08T02:41:20.736Z,74.62
2019-06-08T02:42:20.750Z,74.52
2019-06-08T02:43:20.716Z,73.91
2019-06-08T02:44:20.699Z,73.61
2019-06-08T02:45:23.403Z,73.91
2019-06-08T02:46:20.701Z,73.81
2019-06-08T02:47:20.701Z,73.11
2019-06-08T02:48:20.661Z,73.31
2019-06-08T02:49:20.647Z,73.61
2019-06-08T02:50:20.638Z,73.41
2019-06-08T02:51:20.625Z,73.41
2019-06-08T02:52:20.635Z,73.00
2019-06-08T02:53:20.640Z,71.70
2019-06-08T02:54:20.591Z,72.41
2019-06-08T02:55:20.580Z,72.50
2019-06-08T02:56:20.599Z,73.21
2019-06-08T02:57:20.559Z,73.85
2019-06-08T02:58:20.571Z,73.44
2019-06-08T02:59:20.597Z,73.21
2019-06-08T03:00:20.574Z,73.04
2019-06-08T03:01:20.552Z,73.35
2019-06-08T03:02:21.434Z,73.04
2019-06-08T03:03:20.518Z,73.44
2019-06-08T03:04:22.459Z,73.14
2019-06-08T03:05:20.513Z,73.14
2019-06-08T03:06:20.500Z,73.04
2019-06-08T03:07:20.472Z,73.14
2019-06-08T03:08:20.562Z,72.84
2019-06-08T03:09:20.474Z,73.24
2019-06-08T03:10:20.818Z,72.94
2019-06-08T03:11:20.923Z,72.24
2019-06-08T03:12:20.549Z,72.14
2019-06-08T03:13:21.376Z,71.94
2019-06-08T03:14:20.372Z,72.54
2019-06-08T03:15:20.365Z,72.54
2019-06-08T03:16:20.368Z,72.14
2019-06-08T03:17:20.336Z,71.63
2019-06-08T03:18:20.328Z,71.63
2019-06-08T03:19:22.654Z,71.53
2019-06-08T03:20:20.306Z,71.43
2019-06-08T03:21:20.339Z,71.73
2019-06-08T03:22:20.288Z,71.73
2019-06-08T03:23:20.273Z,71.50
2019-06-08T03:24:20.260Z,71.70
2019-06-08T03:25:20.246Z,72.24
2019-06-08T03:26:20.239Z,72.54
2019-06-08T03:27:20.252Z,72.34
2019-06-08T03:28:20.232Z,72.64
2019-06-08T03:29:20.205Z,72.44
2019-06-08T03:30:20.303Z,72.84
2019-06-08T03:31:20.229Z,72.74
2019-06-08T03:32:20.231Z,72.24
2019-06-08T03:33:20.158Z,70.63
2019-06-08T03:34:20.158Z,70.83
2019-06-08T03:35:20.136Z,70.23
2019-06-08T03:36:20.131Z,69.52
2019-06-08T03:37:20.118Z,69.52
2019-06-08T03:38:20.230Z,69.52
2019-06-08T03:39:20.093Z,69.02
2019-06-08T03:40:20.080Z,68.15
2019-06-08T03:41:20.072Z,67.94
2019-06-08T03:42:20.116Z,68.55
2019-06-08T03:43:20.053Z,68.24
2019-06-08T03:44:20.052Z,68.24
2019-06-08T03:45:20.048Z,67.94
2019-06-08T03:46:20.019Z,68.55
2019-06-08T03:47:20.017Z,67.84
2019-06-08T03:48:20.005Z,67.34
2019-06-08T03:49:37.167Z,68.15
2019-06-08T03:50:20.967Z,68.75
2019-06-08T03:51:19.963Z,69.49
2019-06-08T03:52:19.973Z,69.15
2019-06-08T03:53:19.955Z,69.45
2019-06-08T03:54:19.926Z,69.56
2019-06-08T03:55:19.932Z,70.06
2019-06-08T03:56:19.911Z,73.11
2019-06-08T03:57:19.898Z,70.70
2019-06-08T03:58:19.896Z,69.29
2019-06-08T03:59:21.598Z,70.79
2019-06-08T04:00:19.871Z,70.93
2019-06-08T04:01:19.846Z,70.59
2019-06-08T04:02:19.837Z,68.91
2019-06-08T04:03:19.827Z,71.73
2019-06-08T04:04:19.814Z,70.22
2019-06-08T04:05:19.842Z,72.24
2019-06-08T04:06:19.806Z,71.53
2019-06-08T04:07:19.780Z,71.13
2019-06-08T04:08:19.802Z,71.13
2019-06-08T04:09:19.773Z,70.59
2019-06-08T04:10:19.762Z,70.93
2019-06-08T04:11:19.759Z,71.84
2019-06-08T04:12:19.730Z,72.14
2019-06-08T04:13:19.713Z,71.44
2019-06-08T04:14:19.711Z,71.84
2019-06-08T04:15:19.691Z,70.93
2019-06-08T04:16:19.715Z,71.53
2019-06-08T04:17:19.674Z,70.90
2019-06-08T04:18:19.665Z,71.94
2019-06-08T04:19:19.662Z,71.94
2019-06-08T04:20:19.638Z,71.73
2019-06-08T04:21:19.658Z,70.53
2019-06-08T04:22:19.963Z,70.32
2019-06-08T04:23:19.604Z,69.82
2019-06-08T04:24:19.598Z,70.53
2019-06-08T04:25:19.585Z,70.42
2019-06-08T04:26:19.617Z,70.93
2019-06-08T04:27:19.568Z,71.94
2019-06-08T04:28:19.566Z,71.44
2019-06-08T04:29:19.545Z,70.59
2019-06-08T04:30:19.537Z,70.29
2019-06-08T04:31:19.543Z,70.29
2019-06-08T04:32:19.504Z,70.29
2019-06-08T04:33:19.515Z,70.29
2019-06-08T04:34:19.535Z,70.09
2019-06-08T04:35:19.485Z,70.09
2019-06-08T04:36:19.459Z,69.79
2019-06-08T04:37:19.447Z,70.29
2019-06-08T04:38:19.742Z,70.06
2019-06-08T04:39:19.438Z,70.29
2019-06-08T04:40:19.427Z,70.36
2019-06-08T04:41:19.422Z,70.29
2019-06-08T04:42:19.391Z,70.90
2019-06-08T04:43:19.381Z,70.70
2019-06-08T04:44:19.464Z,71.20
2019-06-08T04:45:19.366Z,71.73
2019-06-08T04:46:33.940Z,72.04
2019-06-08T04:47:19.338Z,72.54
2019-06-08T04:48:19.350Z,72.04
2019-06-08T04:49:19.342Z,71.13
2019-06-08T04:50:23.182Z,70.02
2019-06-08T04:51:19.309Z,70.73
2019-06-08T04:52:19.310Z,70.66
2019-06-08T04:53:19.267Z,70.73
2019-06-08T04:54:19.269Z,71.23
2019-06-08T04:55:19.245Z,71.03
2019-06-08T04:56:19.250Z,71.23
2019-06-08T04:57:19.237Z,69.99
2019-06-08T04:58:19.232Z,70.19
2019-06-08T04:59:19.327Z,69.72
2019-06-08T05:00:19.200Z,69.82
2019-06-08T05:01:19.183Z,70.02
2019-06-08T05:02:19.173Z,69.82
2019-06-08T05:03:19.196Z,69.01
2019-06-08T05:04:19.164Z,69.21
2019-06-08T05:05:19.149Z,68.51
2019-06-08T05:06:19.131Z,68.78
2019-06-08T05:07:19.159Z,68.48
2019-06-08T05:08:19.100Z,68.75
2019-06-08T05:09:19.087Z,68.48
2019-06-08T05:10:19.167Z,69.15
2019-06-08T05:11:19.066Z,68.15
2019-06-08T05:12:19.088Z,67.84
2019-06-08T05:13:19.055Z,68.55
2019-06-08T05:14:19.049Z,67.14
2019-06-08T05:15:19.040Z,67.94
2019-06-08T05:16:19.013Z,67.54
2019-06-08T05:17:19.004Z,67.91
2019-06-08T05:18:18.999Z,67.21
2019-06-08T05:19:18.981Z,65.90
2019-06-08T05:20:19.025Z,63.79
2019-06-08T05:21:18.967Z,64.46
2019-06-08T05:22:18.946Z,64.79
2019-06-08T05:23:18.931Z,64.39
2019-06-08T05:24:18.924Z,63.59
2019-06-08T05:25:18.915Z,63.25
2019-06-08T05:26:18.918Z,63.56
2019-06-08T05:27:18.892Z,63.45
2019-06-08T05:28:18.877Z,63.25
2019-06-08T05:29:18.864Z,63.65
2019-06-08T05:30:18.853Z,64.26
2019-06-08T05:31:18.874Z,64.46
2019-06-08T05:32:18.834Z,65.59
2019-06-08T05:33:18.832Z,65.09
2019-06-08T05:34:18.814Z,65.62
2019-06-08T05:35:18.802Z,67.27
2019-06-08T05:36:18.792Z,66.70
2019-06-08T05:37:19.063Z,67.10
2019-06-08T05:38:18.768Z,66.60
2019-06-08T05:39:18.754Z,67.00
2019-06-08T05:40:18.754Z,67.10
2019-06-08T05:41:18.751Z,67.50
2019-06-08T05:42:18.730Z,65.69
2019-06-08T05:43:18.774Z,65.59
2019-06-08T05:44:18.699Z,65.86
2019-06-08T05:45:18.687Z,66.19
2019-06-08T05:46:18.679Z,65.89
2019-06-08T05:47:18.681Z,65.79
2019-06-08T05:48:18.667Z,65.99
2019-06-08T05:49:18.644Z,65.79
2019-06-08T05:50:18.633Z,66.06
2019-06-08T05:51:18.633Z,65.89
2019-06-08T05:52:18.619Z,66.50
2019-06-08T05:53:18.601Z,67.00
2019-06-08T05:54:18.593Z,66.70
2019-06-08T05:55:18.586Z,65.86
2019-06-08T05:56:18.577Z,66.06
2019-06-08T05:57:18.551Z,66.09
2019-06-08T05:58:18.542Z,65.99
2019-06-08T05:59:18.541Z,65.59
2019-06-08T06:00:18.517Z,65.79
2019-06-08T06:01:18.503Z,65.06
2019-06-08T06:02:18.494Z,65.16
2019-06-08T06:03:18.481Z,65.02
2019-06-08T06:04:18.492Z,64.72
2019-06-08T06:05:18.486Z,65.12
2019-06-08T06:06:18.447Z,64.72
2019-06-08T06:07:18.465Z,64.62
2019-06-08T06:08:19.406Z,64.75
2019-06-08T06:09:18.449Z,64.95
2019-06-08T06:10:18.696Z,64.86
2019-06-08T06:11:18.392Z,64.55
2019-06-08T06:12:18.385Z,64.75
2019-06-08T06:13:18.370Z,63.65
2019-06-08T06:14:18.359Z,63.11
2019-06-08T06:15:18.376Z,63.11
2019-06-08T06:16:18.338Z,62.58
2019-06-08T06:17:18.329Z,62.38
2019-06-08T06:18:18.312Z,61.67
2019-06-08T06:19:18.308Z,60.51
2019-06-08T06:20:18.343Z,59.17
2019-06-08T06:21:18.304Z,58.34
2019-06-08T06:22:18.276Z,57.79
2019-06-08T06:23:18.263Z,56.58
2019-06-08T06:24:18.251Z,56.05
2019-06-08T06:25:18.240Z,54.62
2019-06-08T06:26:18.247Z,54.37
2019-06-08T06:27:18.226Z,53.44
2019-06-08T06:28:18.212Z,53.05
2019-06-08T06:29:18.192Z,52.42
2019-06-08T06:30:18.179Z,51.59
2019-06-08T06:31:18.176Z,52.00
2019-06-08T06:32:18.187Z,51.82
2019-06-08T06:33:18.147Z,52.72
2019-06-08T06:34:18.213Z,52.82
2019-06-08T06:35:18.126Z,51.34
2019-06-08T06:36:18.135Z,52.47
2019-06-08T06:37:18.262Z,52.69
2019-06-08T06:38:18.190Z,51.79
2019-06-08T06:39:18.085Z,52.62
2019-06-08T06:40:18.103Z,50.59
2019-06-08T06:41:18.059Z,52.07
2019-06-08T06:42:18.106Z,50.57
2019-06-08T06:43:18.040Z,50.76
2019-06-08T06:44:18.041Z,49.96
2019-06-08T06:45:18.036Z,50.89
2019-06-08T06:46:18.016Z,50.42
2019-06-08T06:47:17.996Z,50.57
2019-06-08T06:48:17.988Z,49.87
2019-06-08T06:49:17.973Z,47.94
2019-06-08T06:50:17.969Z,47.69
2019-06-08T06:51:26.371Z,47.35
2019-06-08T06:52:18.974Z,45.40
2019-06-08T06:53:17.933Z,45.17
2019-06-08T06:54:17.920Z,44.07
2019-06-08T06:55:17.927Z,43.95
2019-06-08T06:56:17.903Z,42.29
2019-06-08T06:57:17.890Z,41.69
2019-06-08T06:58:17.910Z,40.08
2019-06-08T06:59:17.866Z,41.60
2019-06-08T07:00:17.872Z,42.35
2019-06-08T07:01:17.881Z,42.47
2019-06-08T07:02:17.842Z,45.09
2019-06-08T07:03:17.839Z,43.35
2019-06-08T07:04:17.806Z,40.22
2019-06-08T07:05:17.800Z,35.89
2019-06-08T07:06:17.804Z,32.92
2019-06-08T07:07:17.781Z,31.88
2019-06-08T07:08:18.089Z,33.67
2019-06-08T07:09:17.752Z,30.51
2019-06-08T07:10:17.750Z,30.18
2019-06-08T07:11:17.733Z,31.21
2019-06-08T07:12:17.826Z,32.47
2019-06-08T07:13:17.894Z,34.25
2019-06-08T07:14:17.733Z,34.53
2019-06-08T07:15:17.711Z,36.08
2019-06-08T07:16:19.056Z,37.21
2019-06-08T07:17:17.670Z,38.97
2019-06-08T07:18:17.653Z,41.89
2019-06-08T07:19:17.647Z,44.87
2019-06-08T07:20:17.653Z,46.12
2019-06-08T07:21:17.631Z,47.46
2019-06-08T07:22:17.610Z,47.46
2019-06-08T07:23:17.608Z,47.56
2019-06-08T07:24:17.586Z,48.16
2019-06-08T07:25:17.588Z,48.26
2019-06-08T07:26:17.583Z,48.64
2019-06-08T07:27:17.560Z,48.24
2019-06-08T07:28:17.545Z,48.04
2019-06-08T07:29:17.533Z,48.04
2019-06-08T07:30:17.541Z,47.11
2019-06-08T07:31:17.541Z,48.24
2019-06-08T07:32:17.511Z,48.24
2019-06-08T07:33:17.487Z,47.84
2019-06-08T07:34:17.479Z,48.74
2019-06-08T07:35:17.473Z,47.84
2019-06-08T07:36:17.486Z,47.42
2019-06-08T07:37:20.573Z,47.02
2019-06-08T07:38:17.434Z,47.11
2019-06-08T07:39:17.416Z,47.11
2019-06-08T07:40:17.410Z,47.49
2019-06-08T07:41:17.402Z,46.57
2019-06-08T07:42:17.454Z,46.25
2019-06-08T07:43:17.392Z,46.85
2019-06-08T07:44:17.373Z,46.95
2019-06-08T07:45:17.352Z,46.95
2019-06-08T07:46:17.342Z,47.49
2019-06-08T07:47:17.333Z,47.30
2019-06-08T07:48:17.351Z,47.72
2019-06-08T07:49:17.411Z,47.14
2019-06-08T07:50:17.299Z,48.76
2019-06-08T07:51:17.290Z,48.69
2019-06-08T07:52:17.302Z,48.49
2019-06-08T07:53:17.264Z,48.58
2019-06-08T07:54:17.307Z,48.19
2019-06-08T07:55:17.238Z,48.81
2019-06-08T07:56:17.227Z,50.01
2019-06-08T07:57:17.236Z,48.53
2019-06-08T07:58:17.209Z,49.23
2019-06-08T07:59:17.212Z,49.04
2019-06-08T08:00:17.462Z,49.86
2019-06-08T08:01:17.173Z,49.78
2019-06-08T08:02:17.180Z,50.71
2019-06-08T08:03:17.150Z,50.71
2019-06-08T08:04:17.144Z,50.63
2019-06-08T08:05:17.186Z,51.11
2019-06-08T08:06:17.121Z,51.61
2019-06-08T08:07:17.117Z,51.64
2019-06-08T08:08:17.095Z,51.94
2019-06-08T08:09:17.087Z,52.26
2019-06-08T08:10:17.182Z,53.07
2019-06-08T08:11:17.064Z,52.84
2019-06-08T08:12:17.055Z,52.44
2019-06-08T08:13:17.042Z,51.94
2019-06-08T08:14:17.035Z,52.24
2019-06-08T08:15:17.023Z,50.63
2019-06-08T08:16:17.028Z,50.63
2019-06-08T08:17:17.000Z,50.84
2019-06-08T08:18:17.002Z,52.34
2019-06-08T08:19:16.988Z,50.41
2019-06-08T08:20:16.987Z,50.68
2019-06-08T08:21:23.140Z,49.76
2019-06-08T08:22:22.954Z,50.56
2019-06-08T08:23:17.940Z,49.93
2019-06-08T08:24:17.352Z,49.54
2019-06-08T08:25:18.249Z,49.76
2019-06-08T08:26:16.902Z,49.98
2019-06-08T08:27:17.911Z,51.01
2019-06-08T08:28:17.704Z,51.26
2019-06-08T08:29:17.705Z,52.24
2019-06-08T08:30:17.764Z,51.64
2019-06-08T08:31:18.600Z,50.73
2019-06-08T08:32:18.799Z,50.84
2019-06-08T08:33:18.372Z,51.16
2019-06-08T08:34:18.282Z,50.86
2019-06-08T08:35:18.570Z,50.86
2019-06-08T08:36:17.996Z,50.96
2019-06-08T08:37:17.603Z,50.26
2019-06-08T08:38:17.726Z,51.16
2019-06-08T08:39:17.686Z,51.26
2019-06-08T08:40:17.862Z,51.06
2019-06-08T08:41:18.203Z,51.26
2019-06-08T08:42:18.060Z,50.63
2019-06-08T08:43:17.819Z,50.63
2019-06-08T08:44:17.614Z,50.23
2019-06-08T08:45:18.268Z,50.01
2019-06-08T08:46:17.338Z,50.11
2019-06-08T08:47:18.734Z,50.21
2019-06-08T08:48:25.480Z,49.98
2019-06-08T08:49:18.231Z,49.16
2019-06-08T08:50:18.390Z,48.66
2019-06-08T08:51:17.974Z,49.26
2019-06-08T08:52:17.528Z,49.33
2019-06-08T08:53:18.047Z,48.83
2019-06-08T08:54:18.343Z,47.53
2019-06-08T08:55:20.284Z,48.05
2019-06-08T08:56:18.093Z,49.56
2019-06-08T08:57:18.114Z,47.88
2019-06-08T08:58:18.631Z,49.18
2019-06-08T08:59:17.794Z,49.91
2019-06-08T09:00:18.080Z,49.15
2019-06-08T09:01:20.174Z,50.38
2019-06-08T09:02:20.750Z,50.71
2019-06-08T09:03:28.885Z,50.81
2019-06-08T09:04:18.533Z,50.60
2019-06-08T09:05:18.140Z,51.31
2019-06-08T09:06:18.155Z,52.01
2019-06-08T09:07:19.692Z,51.29
2019-06-08T09:08:18.237Z,51.18
2019-06-08T09:09:21.334Z,50.38
2019-06-08T09:10:18.371Z,50.56
2019-06-08T09:11:17.616Z,50.35
2019-06-08T09:12:18.337Z,49.63
2019-06-08T09:13:18.661Z,49.01
2019-06-08T09:14:18.451Z,49.80
2019-06-08T09:15:19.023Z,50.18
2019-06-08T09:16:17.676Z,50.31
2019-06-08T09:17:23.003Z,51.01
2019-06-08T09:18:18.645Z,50.51
2019-06-08T09:19:20.635Z,50.73
2019-06-08T09:20:19.240Z,51.16
2019-06-08T09:21:18.571Z,51.46
2019-06-08T09:22:18.620Z,51.59
2019-06-08T09:23:21.471Z,51.49
2019-06-08T09:24:18.638Z,52.01
2019-06-08T09:25:18.224Z,51.81
2019-06-08T09:26:17.614Z,52.01
2019-06-08T09:27:17.888Z,51.89
2019-06-08T09:28:18.379Z,52.19
2019-06-08T09:29:18.762Z,51.09
2019-06-08T09:30:18.320Z,52.09
2019-06-08T09:31:18.384Z,50.58
2019-06-08T09:32:18.017Z,51.09
2019-06-08T09:33:18.574Z,51.26
2019-06-08T09:34:19.171Z,50.89
2019-06-08T09:35:18.660Z,50.89
2019-06-08T09:36:17.695Z,50.89
2019-06-08T09:37:18.343Z,50.58
2019-06-08T09:38:18.398Z,50.58
2019-06-08T09:39:18.647Z,50.48
2019-06-08T09:40:16.072Z,50.76
2019-06-08T09:41:18.455Z,50.53
2019-06-08T09:42:20.904Z,49.38
2019-06-08T09:43:18.900Z,48.48
2019-06-08T09:44:18.493Z,47.23
2019-06-08T09:45:18.036Z,47.23
2019-06-08T09:46:17.870Z,46.50
2019-06-08T09:47:17.952Z,47.13
2019-06-08T09:48:18.219Z,47.15
2019-06-08T09:49:18.552Z,47.77
2019-06-08T09:50:18.229Z,47.45
2019-06-08T09:51:18.520Z,47.55
2019-06-08T09:52:18.417Z,47.27
2019-06-08T09:53:27.995Z,47.35
2019-06-08T09:54:18.209Z,47.97
2019-06-08T09:55:17.934Z,47.50
2019-06-08T09:56:18.292Z,48.00
2019-06-08T09:57:18.492Z,47.97
2019-06-08T09:58:18.138Z,47.58
2019-06-08T09:59:18.359Z,47.58
2019-06-08T10:00:21.356Z,47.90
2019-06-08T10:01:18.429Z,47.12
2019-06-08T10:02:18.231Z,48.10
2019-06-08T10:03:18.436Z,47.85
2019-06-08T10:04:15.849Z,49.15
2019-06-08T10:05:18.333Z,48.22
2019-06-08T10:06:18.167Z,48.83
2019-06-08T10:07:16.592Z,48.43
2019-06-08T10:08:20.285Z,48.30
2019-06-08T10:09:18.456Z,48.72
2019-06-08T10:10:18.017Z,48.20
2019-06-08T10:11:15.774Z,48.18
2019-06-08T10:12:18.033Z,47.55
2019-06-08T10:13:18.714Z,47.53
2019-06-08T10:14:18.527Z,46.81
2019-06-08T10:15:17.751Z,47.23
2019-06-08T10:16:18.337Z,45.78
2019-06-08T10:17:20.524Z,45.01
2019-06-08T10:18:17.670Z,44.29
2019-06-08T10:19:18.488Z,44.70
2019-06-08T10:20:18.136Z,44.56
2019-06-08T10:21:18.273Z,45.58
2019-06-08T10:22:18.171Z,46.81
2019-06-08T10:23:30.265Z,47.15
2019-06-08T10:24:16.603Z,46.85
2019-06-08T10:25:15.587Z,46.65
2019-06-08T10:26:17.660Z,47.58
2019-06-08T10:27:18.497Z,47.03
2019-06-08T10:28:19.160Z,47.61
2019-06-08T10:29:18.491Z,47.03
2019-06-08T10:30:15.554Z,48.03
2019-06-08T10:31:17.468Z,47.53
2019-06-08T10:32:17.916Z,46.95
2019-06-08T10:33:15.504Z,47.05
2019-06-08T10:34:15.491Z,47.47
2019-06-08T10:35:18.505Z,48.63
2019-06-08T10:36:15.451Z,48.40
2019-06-08T10:37:15.447Z,48.43
2019-06-08T10:38:17.928Z,48.65
2019-06-08T10:39:15.432Z,48.20
2019-06-08T10:40:15.425Z,48.10
2019-06-08T10:41:18.932Z,48.22
2019-06-08T10:42:18.019Z,48.75
2019-06-08T10:43:17.497Z,49.33
2019-06-08T10:44:15.388Z,49.02
2019-06-08T10:45:15.584Z,47.58
2019-06-08T10:46:19.909Z,48.60
2019-06-08T10:47:16.369Z,48.58
2019-06-08T10:48:17.769Z,47.17
2019-06-08T10:49:18.348Z,47.55
2019-06-08T10:50:15.838Z,47.65
2019-06-08T10:51:15.286Z,47.25
2019-06-08T10:52:15.331Z,47.05
2019-06-08T10:53:16.601Z,47.23
2019-06-08T10:54:17.324Z,47.23
2019-06-08T10:55:17.855Z,47.23
2019-06-08T10:56:15.284Z,47.15
2019-06-08T10:57:15.225Z,47.45
2019-06-08T10:58:15.230Z,47.00
2019-06-08T10:59:15.274Z,46.68
2019-06-08T11:00:22.639Z,46.56
2019-06-08T11:01:18.585Z,45.54
2019-06-08T11:02:15.185Z,44.84
2019-06-08T11:03:15.184Z,45.04
2019-06-08T11:04:15.141Z,44.32
2019-06-08T11:05:17.897Z,41.93
2019-06-08T11:06:15.166Z,40.62
2019-06-08T11:07:16.198Z,40.18
2019-06-08T11:08:15.157Z,37.15
2019-06-08T11:09:15.706Z,33.77
2019-06-08T11:10:15.078Z,34.69
2019-06-08T11:11:19.504Z,32.32
2019-06-08T11:12:18.227Z,31.25
2019-06-08T11:13:15.405Z,31.04
2019-06-08T11:14:15.038Z,30.10
2019-06-08T11:15:15.043Z,30.20
2019-06-08T11:16:17.667Z,30.47
2019-06-08T11:17:17.757Z,28.42
2019-06-08T11:18:15.029Z,28.48
2019-06-08T11:19:17.772Z,30.98
2019-06-08T11:20:14.977Z,30.30
2019-06-08T11:21:14.970Z,29.91
2019-06-08T11:22:15.952Z,27.94
2019-06-08T11:23:14.942Z,27.09
2019-06-08T11:24:23.693Z,30.34
2019-06-08T11:25:19.633Z,32.28
2019-06-08T11:26:20.688Z,32.31
2019-06-08T11:27:15.897Z,32.64
2019-06-08T11:28:15.344Z,33.70
2019-06-08T11:29:14.894Z,35.11
2019-06-08T11:30:23.703Z,35.54
2019-06-08T11:31:16.326Z,36.99
2019-06-08T11:32:14.842Z,38.24
2019-06-08T11:33:14.836Z,38.24
2019-06-08T11:34:14.823Z,37.42
2019-06-08T11:35:17.586Z,34.66
2019-06-08T11:36:15.105Z,31.99
2019-06-08T11:37:18.538Z,29.99
2019-06-08T11:38:17.482Z,28.52
2019-06-08T11:39:14.784Z,28.70
2019-06-08T11:40:14.770Z,28.09
2019-06-08T11:41:14.790Z,26.97
2019-06-08T11:42:14.782Z,28.11
2019-06-08T11:43:14.739Z,29.62
2019-06-08T11:44:15.575Z,30.65
2019-06-08T11:45:14.709Z,29.30
2019-06-08T11:46:18.114Z,29.10
2019-06-08T11:47:18.020Z,27.32
2019-06-08T11:48:14.677Z,28.12
2019-06-08T11:49:15.685Z,28.22
2019-06-08T11:50:14.664Z,24.56
2019-06-08T11:51:14.688Z,23.76
2019-06-08T11:52:14.657Z,25.59
2019-06-08T11:53:17.244Z,25.38
2019-06-08T11:54:29.586Z,25.16
2019-06-08T11:55:18.026Z,24.71
2019-06-08T11:56:14.594Z,24.55
2019-06-08T11:57:14.604Z,26.07
2019-06-08T11:58:14.574Z,27.40
2019-06-08T11:59:14.604Z,26.34
2019-06-08T12:00:23.690Z,26.54
2019-06-08T12:01:18.361Z,25.70
2019-06-08T12:02:14.584Z,27.19
2019-06-08T12:03:14.537Z,27.25
2019-06-08T12:04:14.527Z,27.77
2019-06-08T12:05:14.499Z,28.90
2019-06-08T12:06:14.782Z,30.32
2019-06-08T12:07:14.481Z,29.17
2019-06-08T12:08:14.469Z,31.52
2019-06-08T12:09:14.463Z,31.43
2019-06-08T12:10:14.449Z,31.96
2019-06-08T12:11:18.770Z,32.26
2019-06-08T12:12:18.602Z,32.56
2019-06-08T12:13:17.679Z,33.18
2019-06-08T12:14:14.531Z,33.66
2019-06-08T12:15:17.495Z,33.48
2019-06-08T12:16:15.918Z,33.39
2019-06-08T12:17:19.305Z,34.09
2019-06-08T12:18:15.359Z,33.89
2019-06-08T12:19:17.287Z,34.08
2019-06-08T12:20:19.763Z,33.47
2019-06-08T12:21:15.329Z,32.45
2019-06-08T12:22:14.609Z,32.65
2019-06-08T12:23:14.337Z,32.12
2019-06-08T12:24:14.464Z,32.02
2019-06-08T12:25:14.300Z,31.34
2019-06-08T12:26:14.614Z,31.34
2019-06-08T12:27:23.680Z,31.32
2019-06-08T12:28:17.709Z,30.32
2019-06-08T12:29:15.809Z,30.82
2019-06-08T12:30:20.522Z,30.61
2019-06-08T12:31:19.311Z,29.51
2019-06-08T12:32:16.278Z,29.30
2019-06-08T12:33:15.303Z,29.10
2019-06-08T12:34:15.526Z,29.39
2019-06-08T12:35:15.414Z,29.05
2019-06-08T12:36:16.851Z,27.19
2019-06-08T12:37:17.851Z,25.84
2019-06-08T12:38:19.063Z,24.83
2019-06-08T12:39:14.333Z,24.03
2019-06-08T12:40:15.945Z,24.82
2019-06-08T12:41:15.724Z,24.90
2019-06-08T12:42:18.645Z,23.90
2019-06-08T12:43:15.812Z,23.65
2019-06-08T12:44:16.415Z,23.36
2019-06-08T12:45:15.156Z,23.88
2019-06-08T12:46:15.150Z,25.32
2019-06-08T12:47:17.658Z,24.73
2019-06-08T12:48:19.552Z,25.56
2019-06-08T12:49:16.436Z,26.15
2019-06-08T12:50:15.433Z,26.75
2019-06-08T12:51:15.303Z,25.45
2019-06-08T12:52:14.559Z,24.65